Time;durP1;ratioP1;P1;durP2;ratioP2;P2;SDS_P1;SDS_P2;PMS_P1;PMS_P2;Temp;Humidity;BMP_temperature;BMP_pressure;BME280_temperature;BME280_humidity;BME280_pressure;Samples;Min_cycle;Max_cycle;Signal;HPM_P1;HPM_P2
2022/12/14 00:00:42;;;;;;;7.57;3.83;;;-1.70;99.90;;;;;;5068898;28;20413;-78
2022/12/14 00:03:08;;;;;;;10.70;4.87;;;-1.70;99.90;;;;;;5067925;28;20480;-78
2022/12/14 00:05:34;;;;;;;11.47;4.90;;;-1.70;99.90;;;;;;5068758;28;20407;-77
2022/12/14 00:08:00;;;;;;;5.57;3.40;;;-1.70;99.90;;;;;;5072677;28;20167;-78
2022/12/14 00:10:25;;;;;;;11.67;4.90;;;-1.70;99.90;;;;;;5072557;28;20184;-79
2022/12/14 00:12:51;;;;;;;5.50;3.30;;;-1.80;99.90;;;;;;5072089;28;20236;-78
2022/12/14 00:15:16;;;;;;;4.10;3.53;;;-1.80;99.90;;;;;;5073301;28;20222;-78
2022/12/14 00:17:42;;;;;;;5.97;3.27;;;-1.80;99.90;;;;;;5072259;28;20179;-78
2022/12/14 00:20:08;;;;;;;6.47;3.60;;;-1.90;99.90;;;;;;5071536;28;20177;-77
2022/12/14 00:22:33;;;;;;;7.47;4.57;;;-1.80;99.90;;;;;;5067416;28;20205;-78
2022/12/14 00:24:59;;;;;;;5.90;3.90;;;-1.80;99.90;;;;;;5072607;28;20990;-78
2022/12/14 00:27:25;;;;;;;10.70;4.63;;;-1.80;99.90;;;;;;5072449;28;20193;-78
2022/12/14 00:29:51;;;;;;;6.83;3.70;;;-1.80;99.90;;;;;;5074315;28;20182;-79
2022/12/14 00:32:17;;;;;;;9.00;4.50;;;-1.70;99.90;;;;;;5072209;28;20463;-78
2022/12/14 00:34:42;;;;;;;5.73;4.13;;;-1.60;99.90;;;;;;5072028;28;20206;-78
2022/12/14 00:37:08;;;;;;;9.37;3.30;;;-1.60;99.90;;;;;;5071998;28;20409;-79
2022/12/14 00:39:33;;;;;;;6.80;3.77;;;-1.60;99.90;;;;;;5071208;28;20175;-78
2022/12/14 00:41:59;;;;;;;8.27;3.83;;;-1.60;99.90;;;;;;5071463;28;20695;-78
2022/12/14 00:44:24;;;;;;;8.60;3.00;;;-1.60;99.90;;;;;;5067762;28;20218;-78
2022/12/14 00:46:50;;;;;;;6.00;3.67;;;-1.60;99.90;;;;;;5071479;28;20258;-77
2022/12/14 00:49:16;;;;;;;7.17;3.87;;;-1.60;99.90;;;;;;5072065;28;20717;-78
2022/12/14 00:51:41;;;;;;;9.50;3.57;;;-1.60;99.90;;;;;;5072250;28;20180;-78
2022/12/14 00:54:07;;;;;;;10.73;3.80;;;-1.50;99.90;;;;;;5071377;28;20201;-77
2022/12/14 00:56:32;;;;;;;6.70;3.93;;;-1.50;99.90;;;;;;5065648;28;20175;-79
2022/12/14 00:58:58;;;;;;;11.43;3.93;;;-1.50;99.90;;;;;;5067117;28;20242;-78
2022/12/14 01:01:23;;;;;;;8.10;3.70;;;-1.50;99.90;;;;;;5067099;28;20175;-78
2022/12/14 01:03:49;;;;;;;5.80;3.93;;;-1.50;99.90;;;;;;5064133;28;20214;-78
2022/12/14 01:06:20;;;;;;;11.33;3.80;;;-1.50;99.90;;;;;;5065570;28;20178;-78
2022/12/14 01:08:47;;;;;;;5.33;3.17;;;-1.50;99.90;;;;;;5066110;28;20409;-78
2022/12/14 01:11:14;;;;;;;7.20;3.73;;;-1.40;99.90;;;;;;5071346;28;20410;-78
2022/12/14 01:13:40;;;;;;;9.63;5.60;;;-1.40;99.90;;;;;;5070826;28;20437;-78
2022/12/14 01:16:11;;;;;;;8.07;3.83;;;-1.40;99.90;;;;;;5072213;28;20444;-78
2022/12/14 01:18:39;;;;;;;4.27;2.77;;;-1.50;99.90;;;;;;5071234;28;20441;-78
2022/12/14 01:21:12;;;;;;;7.40;5.23;;;-1.50;99.90;;;;;;5073611;28;20401;-78
2022/12/14 01:23:38;;;;;;;6.20;2.63;;;-1.50;99.90;;;;;;5072828;28;20457;-78
2022/12/14 01:26:04;;;;;;;5.53;3.50;;;-1.40;99.90;;;;;;5072091;28;20431;-78
2022/12/14 01:28:29;;;;;;;6.10;3.87;;;-1.50;99.90;;;;;;5072383;28;20411;-78
2022/12/14 01:30:55;;;;;;;8.43;3.33;;;-1.50;99.90;;;;;;5072858;28;20201;-78
2022/12/14 01:33:20;;;;;;;7.23;3.00;;;-1.50;99.90;;;;;;5073989;28;20190;-78
2022/12/14 01:35:46;;;;;;;6.43;3.80;;;-1.50;99.90;;;;;;5071937;28;20171;-79
2022/12/14 01:38:11;;;;;;;9.27;4.80;;;-1.50;99.90;;;;;;5071747;28;20517;-78
2022/12/14 01:40:37;;;;;;;5.60;3.80;;;-1.40;99.90;;;;;;5070812;28;20224;-78
2022/12/14 01:43:02;;;;;;;5.93;2.90;;;-1.40;99.90;;;;;;5063659;28;20205;-78
2022/12/14 01:45:28;;;;;;;5.60;3.30;;;-1.50;99.90;;;;;;5063881;28;20270;-77
2022/12/14 01:48:00;;;;;;;8.93;3.30;;;-1.50;99.90;;;;;;5063278;28;20175;-77
2022/12/14 01:50:39;;;;;;;6.47;3.67;;;-1.50;99.90;;;;;;5062907;28;20419;-78
2022/12/14 01:53:09;;;;;;;7.70;3.73;;;-1.50;99.90;;;;;;5062482;28;20422;-77
2022/12/14 01:55:42;;;;;;;4.37;2.63;;;-1.50;99.90;;;;;;5061596;28;20410;-78
2022/12/14 01:58:18;;;;;;;6.10;2.90;;;-1.60;99.90;;;;;;5062039;28;20418;-77
2022/12/14 02:00:44;;;;;;;4.77;3.37;;;-1.60;99.90;;;;;;5064272;28;20773;-77
2022/12/14 02:03:14;;;;;;;10.33;4.43;;;-1.60;99.90;;;;;;5062487;28;20456;-78
2022/12/14 02:05:47;;;;;;;6.27;3.40;;;-1.70;99.90;;;;;;5063066;28;20420;-78
2022/12/14 02:08:14;;;;;;;6.00;3.70;;;-1.70;99.90;;;;;;5063320;28;20407;-78
2022/12/14 02:10:40;;;;;;;7.77;4.17;;;-1.80;99.90;;;;;;5062950;28;20430;-78
2022/12/14 02:13:13;;;;;;;7.83;3.33;;;-1.80;99.90;;;;;;5062634;28;20417;-78
2022/12/14 02:15:40;;;;;;;7.60;3.83;;;-1.90;99.90;;;;;;5062478;28;20780;-77
2022/12/14 02:18:11;;;;;;;5.90;2.83;;;-1.90;99.90;;;;;;5067338;28;20457;-78
2022/12/14 02:20:48;;;;;;;8.03;3.53;;;-1.90;99.90;;;;;;5070204;28;20467;-79
2022/12/14 02:23:48;;;;;;;9.20;2.93;;;-1.90;99.90;;;;;;5070181;28;20476;-78
2022/12/14 02:26:40;;;;;;;7.00;4.23;;;-2.00;99.90;;;;;;5070629;28;20412;-78
2022/12/14 02:29:08;;;;;;;5.50;3.10;;;-2.00;99.90;;;;;;5070957;28;20409;-79
2022/12/14 02:32:04;;;;;;;6.73;4.37;;;-2.00;99.90;;;;;;5069913;28;20448;-79
2022/12/14 02:34:56;;;;;;;6.60;3.23;;;-2.00;99.90;;;;;;5069022;28;20443;-78
2022/12/14 02:37:24;;;;;;;11.13;4.00;;;-2.00;99.90;;;;;;5069752;28;20397;-78
2022/12/14 02:40:22;;;;;;;8.03;2.93;;;-2.00;99.90;;;;;;5069871;28;20398;-78
2022/12/14 02:43:00;;;;;;;7.67;3.63;;;-2.00;99.90;;;;;;5068089;28;20535;-79
2022/12/14 02:45:41;;;;;;;9.10;3.70;;;-2.00;99.90;;;;;;5069503;28;21038;-78
2022/12/14 02:48:23;;;;;;;5.43;2.80;;;-2.00;99.90;;;;;;5070462;28;20413;-79
2022/12/14 02:50:58;;;;;;;5.17;3.83;;;-2.00;99.90;;;;;;5068211;28;20416;-79
2022/12/14 02:54:10;;;;;;;6.20;4.50;;;-1.90;99.90;;;;;;5069026;28;20443;-79
2022/12/14 02:56:44;;;;;;;6.17;3.30;;;-1.90;99.90;;;;;;5069048;28;20476;-79
2022/12/14 02:59:10;;;;;;;5.30;3.80;;;-1.90;99.90;;;;;;5070719;28;20847;-79
2022/12/14 03:01:37;;;;;;;5.47;3.50;;;-1.90;99.90;;;;;;5069140;28;20495;-78
2022/12/14 03:04:03;;;;;;;6.97;4.13;;;-1.90;99.90;;;;;;5069644;28;20504;-79
2022/12/14 03:06:29;;;;;;;8.20;3.87;;;-1.90;99.90;;;;;;5070277;28;20437;-78
2022/12/14 03:09:11;;;;;;;6.93;3.87;;;-1.80;99.90;;;;;;5070036;28;20177;-78
2022/12/14 03:12:03;;;;;;;5.37;2.50;;;-1.80;99.90;;;;;;5071114;28;20436;-79
2022/12/14 03:14:36;;;;;;;4.90;3.23;;;-1.80;99.90;;;;;;5070844;28;20429;-79
2022/12/14 03:17:18;;;;;;;8.50;3.83;;;-1.80;99.90;;;;;;5069613;28;20406;-79
2022/12/14 03:19:47;;;;;;;7.40;3.67;;;-1.80;99.90;;;;;;5069969;28;20409;-79
2022/12/14 03:22:55;;;;;;;7.20;3.90;;;-1.80;99.90;;;;;;5068853;28;20453;-78
2022/12/14 03:25:31;;;;;;;6.03;3.50;;;-1.80;99.90;;;;;;5069189;28;20417;-79
2022/12/14 03:28:09;;;;;;;7.23;3.53;;;-1.80;99.90;;;;;;5069349;28;20409;-78
2022/12/14 03:30:37;;;;;;;6.37;3.77;;;-1.70;99.90;;;;;;5069630;28;20409;-79
2022/12/14 03:33:09;;;;;;;8.00;3.13;;;-1.70;99.90;;;;;;5069672;28;20425;-79
2022/12/14 03:35:45;;;;;;;6.57;3.73;;;-1.60;99.90;;;;;;5069723;28;20847;-79
2022/12/14 03:38:23;;;;;;;8.20;4.00;;;-1.60;99.90;;;;;;5068963;28;20409;-78
2022/12/14 03:41:26;;;;;;;7.67;4.20;;;-1.50;99.90;;;;;;5069561;28;20407;-79
2022/12/14 03:44:07;;;;;;;6.50;3.10;;;-1.40;99.90;;;;;;5070643;28;20434;-79
2022/12/14 03:46:54;;;;;;;5.73;3.80;;;-1.40;99.90;;;;;;5069020;28;20409;-79
2022/12/14 03:49:46;;;;;;;9.60;3.63;;;-1.30;99.90;;;;;;5069250;28;20412;-78
2022/12/14 03:52:25;;;;;;;6.23;3.70;;;-1.40;99.90;;;;;;5068736;28;21010;-78
2022/12/14 03:55:05;;;;;;;10.10;3.53;;;-1.30;99.90;;;;;;5067061;28;20477;-79
2022/12/14 03:57:34;;;;;;;6.73;3.70;;;-1.30;99.90;;;;;;5069757;28;20437;-79
2022/12/14 04:00:08;;;;;;;4.57;3.60;;;-1.20;99.90;;;;;;5069467;28;20428;-78
2022/12/14 04:02:41;;;;;;;7.00;2.90;;;-1.20;99.90;;;;;;5069558;28;20457;-79
2022/12/14 04:05:33;;;;;;;5.33;3.40;;;-1.20;99.90;;;;;;5068926;28;20434;-79
2022/12/14 04:08:26;;;;;;;7.03;2.80;;;-1.10;99.90;;;;;;5070987;28;20795;-79
2022/12/14 04:19:30;;;;;;;5.20;3.50;;;-1.10;99.90;;;;;;5070135;28;20400;-78
2022/12/14 04:22:00;;;;;;;6.10;2.70;;;-1.10;99.90;;;;;;5068430;28;20521;-79
2022/12/14 04:27:36;;;;;;;4.00;3.13;;;-1.00;99.90;;;;;;5070212;28;20685;-78
2022/12/14 04:30:04;;;;;;;9.60;4.83;;;-1.00;99.90;;;;;;5068863;28;20416;-79
2022/12/14 04:32:47;;;;;;;5.90;2.23;;;-1.00;99.90;;;;;;5069675;28;20429;-79
2022/12/14 04:35:38;;;;;;;8.93;4.10;;;-1.10;99.90;;;;;;5068415;28;20463;-78
2022/12/14 04:38:10;;;;;;;9.57;2.80;;;-1.10;99.90;;;;;;5068345;28;20421;-78
2022/12/14 04:40:42;;;;;;;6.03;4.00;;;-1.10;99.90;;;;;;5068946;28;20413;-79
2022/12/14 04:43:13;;;;;;;10.40;3.00;;;-1.00;99.90;;;;;;5068534;28;20457;-79
2022/12/14 04:45:47;;;;;;;8.30;5.00;;;-1.00;99.90;;;;;;5068074;28;20473;-79
2022/12/14 04:48:26;;;;;;;8.90;3.00;;;-0.90;99.90;;;;;;5068234;28;20937;-78
2022/12/14 04:50:59;;;;;;;9.43;2.80;;;-0.90;99.90;;;;;;5070139;28;20747;-78
2022/12/14 04:53:29;;;;;;;6.47;3.87;;;-1.00;99.90;;;;;;5068091;28;20421;-78
2022/12/14 04:56:07;;;;;;;10.10;3.73;;;-1.00;99.90;;;;;;5072052;28;20414;-79
2022/12/14 04:58:34;;;;;;;9.30;3.60;;;-1.10;99.90;;;;;;5072076;28;20417;-78
2022/12/14 05:01:36;;;;;;;3.90;3.40;;;-1.10;99.90;;;;;;5072344;28;20409;-78
2022/12/14 05:04:08;;;;;;;5.13;2.97;;;-1.10;99.90;;;;;;5068909;28;20472;-76
2022/12/14 05:06:57;;;;;;;4.73;2.30;;;-1.10;99.90;;;;;;5065409;28;20767;-78
2022/12/14 05:09:45;;;;;;;8.07;4.50;;;-1.00;99.90;;;;;;5067007;28;20412;-79
2022/12/14 05:12:23;;;;;;;5.10;3.13;;;-1.00;99.90;;;;;;5067602;28;20468;-77
2022/12/14 05:15:14;;;;;;;5.40;3.10;;;-0.90;99.90;;;;;;5065399;28;20441;-77
2022/12/14 05:17:40;;;;;;;7.80;4.27;;;-0.80;99.90;;;;;;5056682;28;20417;-78
2022/12/14 05:20:14;;;;;;;5.73;4.50;;;-0.80;99.90;;;;;;5063595;28;20410;-77
2022/12/14 05:22:40;;;;;;;8.63;3.70;;;-0.80;99.90;;;;;;5064444;28;20839;-78
2022/12/14 05:25:06;;;;;;;4.40;3.73;;;-0.70;99.90;;;;;;5065369;28;20429;-78
2022/12/14 05:27:32;;;;;;;4.30;2.50;;;-0.70;99.90;;;;;;5066150;28;20410;-78
2022/12/14 05:29:57;;;;;;;8.90;4.27;;;-0.70;99.90;;;;;;5064762;28;20420;-78
2022/12/14 05:32:23;;;;;;;10.97;3.27;;;-0.70;99.90;;;;;;5065395;28;20202;-78
2022/12/14 05:34:48;;;;;;;6.83;3.90;;;-0.70;99.90;;;;;;5066009;28;20188;-77
2022/12/14 05:37:14;;;;;;;5.17;2.37;;;-0.70;99.90;;;;;;5065223;28;20189;-78
2022/12/14 05:39:39;;;;;;;3.73;3.07;;;-0.80;99.90;;;;;;5065841;28;20178;-78
2022/12/14 05:42:05;;;;;;;4.60;2.80;;;-0.90;99.90;;;;;;5065311;28;20194;-77
2022/12/14 05:44:30;;;;;;;8.50;3.53;;;-0.80;99.90;;;;;;5058579;28;20195;-79
2022/12/14 05:46:56;;;;;;;17.10;4.60;;;-0.80;99.90;;;;;;5056699;28;20179;-79
2022/12/14 05:49:22;;;;;;;6.47;3.10;;;-0.90;99.90;;;;;;5065823;28;20171;-79
2022/12/14 05:51:48;;;;;;;3.93;2.90;;;-0.90;99.90;;;;;;5066624;28;20175;-79
2022/12/14 05:54:14;;;;;;;5.53;3.13;;;-0.90;99.90;;;;;;5057166;28;20242;-79
2022/12/14 05:56:40;;;;;;;5.73;2.90;;;-0.90;99.90;;;;;;5056255;28;20424;-79
2022/12/14 05:59:05;;;;;;;4.30;2.63;;;-0.90;99.90;;;;;;5068618;28;20493;-78
2022/12/14 06:01:31;;;;;;;5.83;3.30;;;-0.80;99.90;;;;;;5071713;28;20163;-79
2022/12/14 06:03:56;;;;;;;17.97;10.03;;;-0.80;99.90;;;;;;5071678;28;20191;-79
2022/12/14 06:06:22;;;;;;;8.47;3.67;;;-0.70;99.90;;;;;;5069477;28;20599;-78
2022/12/14 06:08:48;;;;;;;4.50;2.80;;;-0.80;99.90;;;;;;5056866;28;20205;-80
2022/12/14 06:11:17;;;;;;;6.03;3.33;;;-0.80;99.90;;;;;;5056038;28;20179;-79
2022/12/14 06:13:43;;;;;;;6.73;3.53;;;-0.80;99.90;;;;;;5060116;28;20206;-78
2022/12/14 06:16:14;;;;;;;5.67;3.23;;;-0.80;99.90;;;;;;5062141;28;20428;-78
2022/12/14 06:18:48;;;;;;;11.23;3.70;;;-0.80;99.90;;;;;;5063541;28;20452;-79
2022/12/14 06:21:15;;;;;;;7.23;3.13;;;-0.80;99.90;;;;;;5063047;28;20412;-79
2022/12/14 06:23:41;;;;;;;7.57;4.00;;;-0.70;99.90;;;;;;5062125;28;20476;-78
2022/12/14 06:26:08;;;;;;;4.77;3.00;;;-0.70;99.90;;;;;;5061999;28;20406;-78
2022/12/14 06:28:34;;;;;;;5.60;3.83;;;-0.70;99.90;;;;;;5060378;28;20175;-78
2022/12/14 06:31:00;;;;;;;4.50;3.03;;;-0.80;99.90;;;;;;5053402;28;20429;-77
2022/12/14 06:33:27;;;;;;;10.23;3.20;;;-0.80;99.90;;;;;;5054842;28;20628;-78
2022/12/14 06:35:52;;;;;;;6.37;3.27;;;-0.70;99.90;;;;;;5056656;28;20512;-79
2022/12/14 06:38:18;;;;;;;6.33;3.57;;;-0.70;99.90;;;;;;5056383;28;20454;-79
2022/12/14 06:40:44;;;;;;;6.73;3.20;;;-0.80;99.90;;;;;;5056433;28;20178;-79
2022/12/14 06:43:09;;;;;;;8.70;4.43;;;-0.80;99.90;;;;;;5056265;28;20962;-79
2022/12/14 06:45:35;;;;;;;13.97;2.97;;;-0.80;99.90;;;;;;5055215;28;20172;-79
2022/12/14 06:48:01;;;;;;;5.47;3.13;;;-0.80;99.90;;;;;;5054282;28;20181;-79
2022/12/14 06:50:27;;;;;;;5.13;4.00;;;-0.80;99.90;;;;;;5055397;28;20222;-79
2022/12/14 06:52:55;;;;;;;6.13;3.47;;;-0.80;99.90;;;;;;5060369;28;20201;-78
2022/12/14 06:55:22;;;;;;;6.17;2.63;;;-0.80;99.90;;;;;;5061886;28;20417;-78
2022/12/14 06:57:52;;;;;;;7.20;3.27;;;-0.70;99.90;;;;;;5060091;28;20413;-80
2022/12/14 07:00:19;;;;;;;6.40;3.47;;;-0.70;99.90;;;;;;5065452;28;20433;-79
2022/12/14 07:02:45;;;;;;;4.80;2.30;;;-0.70;99.90;;;;;;5068584;28;20463;-79
2022/12/14 07:05:11;;;;;;;4.83;3.17;;;-0.70;99.90;;;;;;5067495;28;20958;-77
2022/12/14 07:07:36;;;;;;;4.80;3.43;;;-0.80;99.90;;;;;;5058457;28;20200;-77
2022/12/14 07:10:03;;;;;;;4.87;3.70;;;-0.70;99.90;;;;;;5062650;28;20436;-77
2022/12/14 07:12:28;;;;;;;5.43;2.87;;;-0.80;99.90;;;;;;5064390;28;20203;-77
2022/12/14 07:14:54;;;;;;;11.47;3.60;;;-0.80;99.90;;;;;;5055802;28;20432;-78
2022/12/14 07:17:20;;;;;;;4.00;2.93;;;-0.80;99.90;;;;;;5054094;28;20175;-79
2022/12/14 07:19:47;;;;;;;6.00;3.70;;;-0.90;99.90;;;;;;5055810;28;20199;-79
2022/12/14 07:22:12;;;;;;;7.10;3.10;;;-0.90;99.90;;;;;;5055400;28;20453;-79
2022/12/14 07:24:39;;;;;;;7.37;3.30;;;-0.90;99.90;;;;;;5054264;28;20429;-79
2022/12/14 07:27:05;;;;;;;5.83;3.63;;;-0.90;99.90;;;;;;5054528;28;20412;-78
2022/12/14 07:29:31;;;;;;;5.30;2.57;;;-0.90;99.90;;;;;;5055438;28;20459;-78
2022/12/14 07:31:56;;;;;;;7.67;3.53;;;-0.80;99.90;;;;;;5055777;28;20847;-80
2022/12/14 07:34:22;;;;;;;6.60;4.23;;;-0.90;99.90;;;;;;5054580;28;20301;-78
2022/12/14 07:36:50;;;;;;;4.27;2.70;;;-0.90;99.90;;;;;;5054876;28;20180;-79
2022/12/14 07:39:15;;;;;;;5.43;3.00;;;-0.90;99.90;;;;;;5055344;28;20233;-79
2022/12/14 07:41:42;;;;;;;5.57;3.13;;;-0.90;99.90;;;;;;5054866;28;20435;-80
2022/12/14 07:44:08;;;;;;;5.90;3.70;;;-1.00;99.90;;;;;;5054358;28;20425;-78
2022/12/14 07:46:34;;;;;;;8.90;2.90;;;-1.00;99.90;;;;;;5054716;28;20508;-79
2022/12/14 07:49:01;;;;;;;6.23;3.00;;;-0.90;99.90;;;;;;5055735;28;20445;-80
2022/12/14 07:51:29;;;;;;;3.07;2.53;;;-0.90;99.90;;;;;;5055340;28;20424;-80
2022/12/14 07:53:55;;;;;;;7.87;3.77;;;-0.90;99.90;;;;;;5055842;28;20856;-78
2022/12/14 07:56:24;;;;;;;7.37;3.73;;;-0.90;99.90;;;;;;5053132;28;20444;-79
2022/12/14 07:58:51;;;;;;;5.37;3.20;;;-0.90;99.90;;;;;;5054604;28;20405;-79
2022/12/14 08:01:25;;;;;;;5.87;3.13;;;-0.80;99.90;;;;;;5053904;28;20425;-79
2022/12/14 08:03:53;;;;;;;9.90;3.33;;;-0.80;99.90;;;;;;5054509;28;20469;-79
2022/12/14 08:06:21;;;;;;;6.17;3.23;;;-0.80;99.90;;;;;;5054233;28;20409;-79
2022/12/14 08:08:46;;;;;;;4.37;3.20;;;-0.70;99.90;;;;;;5054551;28;20408;-79
2022/12/14 08:11:13;;;;;;;5.50;3.50;;;-0.70;99.90;;;;;;5055811;28;20477;-79
2022/12/14 08:13:39;;;;;;;5.47;3.53;;;-0.60;99.90;;;;;;5056628;28;20197;-80
2022/12/14 08:16:10;;;;;;;6.63;3.93;;;-0.40;99.90;;;;;;5055368;28;20420;-80
2022/12/14 08:18:36;;;;;;;6.23;4.53;;;-0.30;99.90;;;;;;5055999;28;20427;-80
2022/12/14 08:21:03;;;;;;;5.30;3.23;;;-0.10;99.90;;;;;;5054820;28;20413;-79
2022/12/14 08:23:29;;;;;;;5.80;2.47;;;-0.10;99.90;;;;;;5059763;28;20241;-78
2022/12/14 08:25:56;;;;;;;10.27;4.07;;;-0.10;99.90;;;;;;5057365;28;20413;-80
2022/12/14 08:28:23;;;;;;;9.50;4.00;;;0.00;99.90;;;;;;5059349;28;20229;-79
2022/12/14 08:30:49;;;;;;;7.97;3.57;;;0.00;99.90;;;;;;5064272;28;20409;-78
2022/12/14 08:33:14;;;;;;;5.77;3.57;;;0.20;99.90;;;;;;5065738;28;20437;-78
2022/12/14 08:35:40;;;;;;;6.50;3.90;;;0.40;99.90;;;;;;5056707;28;20413;-77
2022/12/14 08:38:05;;;;;;;4.23;3.43;;;0.50;99.90;;;;;;5058099;28;20178;-79
2022/12/14 08:40:34;;;;;;;6.00;2.97;;;0.70;99.90;;;;;;5060779;28;20164;-79
2022/12/14 08:43:00;;;;;;;5.50;3.40;;;0.60;99.90;;;;;;5060080;28;20209;-80
2022/12/14 08:45:25;;;;;;;5.83;3.50;;;0.60;99.90;;;;;;5055954;28;20417;-78
2022/12/14 08:47:51;;;;;;;6.37;3.10;;;0.60;99.90;;;;;;5056673;28;20174;-78
2022/12/14 08:50:16;;;;;;;8.60;3.80;;;0.70;99.90;;;;;;5057287;28;20600;-77
2022/12/14 08:52:45;;;;;;;8.73;3.50;;;0.70;99.90;;;;;;5056921;28;20175;-78
2022/12/14 08:55:10;;;;;;;6.47;3.10;;;0.80;99.90;;;;;;5055670;28;20193;-77
2022/12/14 08:57:36;;;;;;;7.00;4.30;;;0.80;99.90;;;;;;5056412;28;20409;-78
2022/12/14 09:00:02;;;;;;;9.10;3.60;;;0.70;99.90;;;;;;5057437;28;20536;-78
2022/12/14 09:02:27;;;;;;;6.40;3.83;;;0.70;99.90;;;;;;5056382;28;20194;-78
2022/12/14 09:04:53;;;;;;;8.50;3.70;;;0.60;99.90;;;;;;5055291;28;20440;-78
2022/12/14 09:07:19;;;;;;;9.63;5.13;;;0.50;99.90;;;;;;5066770;28;20163;-78
2022/12/14 09:09:44;;;;;;;5.90;3.17;;;0.60;99.90;;;;;;5064591;28;20170;-78
2022/12/14 09:12:10;;;;;;;20.77;3.13;;;0.50;99.90;;;;;;5060076;28;20182;-78
2022/12/14 09:14:35;;;;;;;7.07;4.03;;;0.60;99.90;;;;;;5057227;28;20559;-79
2022/12/14 09:17:02;;;;;;;5.90;3.43;;;0.70;99.90;;;;;;5057036;28;20175;-79
2022/12/14 09:19:28;;;;;;;10.60;4.67;;;0.70;99.90;;;;;;5058310;28;20170;-77
2022/12/14 09:21:54;;;;;;;4.90;3.07;;;0.80;99.90;;;;;;5065926;28;20462;-78
2022/12/14 09:24:20;;;;;;;5.10;3.40;;;0.80;99.90;;;;;;5062488;28;20567;-78
2022/12/14 09:26:46;;;;;;;5.43;3.43;;;0.90;99.90;;;;;;5061842;28;20432;-79
2022/12/14 09:29:30;;;;;;;4.20;2.70;;;1.00;99.90;;;;;;5069876;28;20428;-81
2022/12/14 09:31:55;;;;;;;8.60;3.93;;;1.00;99.90;;;;;;5056494;28;20482;-79
2022/12/14 09:34:22;;;;;;;5.47;3.77;;;1.10;99.90;;;;;;5059818;28;20425;-78
2022/12/14 09:36:48;;;;;;;8.37;3.73;;;1.10;99.90;;;;;;5061042;28;20163;-78
2022/12/14 09:39:14;;;;;;;8.10;4.20;;;1.20;99.90;;;;;;5058200;28;20412;-78
2022/12/14 09:41:54;;;;;;;6.23;4.70;;;1.30;99.90;;;;;;5058662;28;20764;-78
2022/12/14 09:44:25;;;;;;;5.63;3.37;;;1.50;99.90;;;;;;5059469;28;20245;-78
2022/12/14 09:47:15;;;;;;;5.63;3.43;;;1.70;99.90;;;;;;5060119;28;20432;-78
2022/12/14 09:49:48;;;;;;;6.27;3.63;;;1.80;99.90;;;;;;5059455;28;20910;-78
2022/12/14 09:52:21;;;;;;;8.57;4.40;;;1.80;99.90;;;;;;5059266;28;20432;-78
2022/12/14 09:54:47;;;;;;;7.60;4.10;;;1.80;99.90;;;;;;5057616;28;20437;-78
2022/12/14 09:57:33;;;;;;;7.93;4.23;;;1.80;99.90;;;;;;5058041;28;20421;-78
2022/12/14 09:59:58;;;;;;;5.43;3.70;;;1.90;99.90;;;;;;5059034;28;20415;-78
2022/12/14 10:02:36;;;;;;;5.80;3.77;;;1.80;99.90;;;;;;5057057;28;20452;-78
2022/12/14 10:05:10;;;;;;;7.07;3.60;;;1.80;99.90;;;;;;5056848;28;20240;-79
2022/12/14 10:07:59;;;;;;;9.00;4.23;;;1.70;99.90;;;;;;5057584;28;20408;-78
2022/12/14 10:10:35;;;;;;;7.23;3.77;;;1.70;99.90;;;;;;5070458;28;20409;-79
2022/12/14 10:13:36;;;;;;;6.37;4.27;;;1.80;99.90;;;;;;5070952;28;20409;-79
2022/12/14 10:16:14;;;;;;;7.33;4.20;;;1.70;99.90;;;;;;5069485;28;20589;-79
2022/12/14 10:18:53;;;;;;;4.83;3.03;;;1.80;99.90;;;;;;5063921;28;20937;-79
2022/12/14 10:21:21;;;;;;;7.80;3.90;;;1.80;99.90;;;;;;5055746;28;20770;-79
2022/12/14 10:24:03;;;;;;;6.57;4.30;;;1.70;99.90;;;;;;5054951;28;20465;-79
2022/12/14 10:26:35;;;;;;;10.13;4.37;;;1.60;99.90;;;;;;5055924;28;20938;-79
2022/12/14 10:29:08;;;;;;;8.43;4.53;;;1.40;99.90;;;;;;5055621;28;20405;-79
2022/12/14 10:31:51;;;;;;;9.80;4.90;;;1.30;99.90;;;;;;5056238;28;20971;-79
2022/12/14 10:34:23;;;;;;;6.93;4.50;;;1.20;99.90;;;;;;5054553;28;20946;-79
2022/12/14 10:37:00;;;;;;;8.50;4.97;;;1.10;99.90;;;;;;5055730;28;20408;-78
2022/12/14 10:40:00;;;;;;;5.43;4.10;;;1.00;99.90;;;;;;5054485;28;20414;-78
2022/12/14 10:42:53;;;;;;;6.63;4.07;;;1.10;99.90;;;;;;5051957;28;20525;-79
2022/12/14 10:45:48;;;;;;;7.83;4.50;;;1.00;99.90;;;;;;5056569;28;20405;-78
2022/12/14 10:48:16;;;;;;;9.70;5.37;;;0.90;99.90;;;;;;5061042;28;21027;-78
2022/12/14 10:50:54;;;;;;;9.27;4.93;;;0.90;99.90;;;;;;5069855;28;20405;-79
2022/12/14 10:53:27;;;;;;;17.63;6.00;;;1.00;99.90;;;;;;5069145;28;20432;-78
2022/12/14 10:55:58;;;;;;;8.57;5.67;;;1.00;99.90;;;;;;5070137;28;20481;-79
2022/12/14 10:58:24;;;;;;;9.57;5.30;;;1.10;99.90;;;;;;5063789;28;20419;-79
2022/12/14 11:00:53;;;;;;;10.00;5.17;;;1.10;99.90;;;;;;5054391;28;20915;-78
2022/12/14 11:03:20;;;;;;;9.83;5.27;;;1.20;99.90;;;;;;5053367;28;20315;-79
2022/12/14 11:06:13;;;;;;;9.50;5.30;;;1.30;99.90;;;;;;5054416;28;20461;-79
2022/12/14 11:08:47;;;;;;;8.40;5.30;;;1.30;99.90;;;;;;5053175;28;20402;-79
2022/12/14 11:11:17;;;;;;;10.77;5.20;;;1.20;99.90;;;;;;5054521;28;20401;-79
2022/12/14 11:14:16;;;;;;;10.67;5.27;;;1.20;99.90;;;;;;5053919;28;20432;-79
2022/12/14 11:16:41;;;;;;;7.37;5.40;;;1.30;99.90;;;;;;5043761;28;20406;-80
2022/12/14 11:19:16;;;;;;;9.17;4.77;;;1.30;99.90;;;;;;5058436;28;20512;-77
2022/12/14 11:21:43;;;;;;;10.67;4.93;;;1.40;99.90;;;;;;5054188;28;20181;-78
2022/12/14 11:24:26;;;;;;;11.93;5.00;;;1.40;99.90;;;;;;5060384;28;20424;-77
2022/12/14 11:27:00;;;;;;;10.27;5.10;;;1.50;99.90;;;;;;5055864;28;20481;-82
2022/12/14 11:29:30;;;;;;;9.57;5.50;;;1.40;99.90;;;;;;5052761;28;20865;-77
2022/12/14 11:31:55;;;;;;;8.17;5.87;;;1.40;99.90;;;;;;5054048;28;20437;-77
2022/12/14 11:34:33;;;;;;;8.67;5.50;;;1.40;99.90;;;;;;5052052;28;20432;-77
2022/12/14 11:37:21;;;;;;;5.50;5.00;;;1.30;99.90;;;;;;5052027;28;20225;-76
2022/12/14 11:39:50;;;;;;;8.37;4.87;;;1.30;99.90;;;;;;5052092;28;20408;-77
2022/12/14 11:42:18;;;;;;;8.73;5.07;;;1.30;99.90;;;;;;5051734;28;20957;-76
2022/12/14 11:44:45;;;;;;;7.20;5.00;;;1.30;99.90;;;;;;5060644;28;20433;-78
2022/12/14 11:47:19;;;;;;;9.90;4.97;;;1.30;99.90;;;;;;5070481;28;20419;-78
2022/12/14 11:49:46;;;;;;;11.17;5.20;;;1.30;99.90;;;;;;5070308;28;20429;-79
2022/12/14 11:52:36;;;;;;;10.37;6.40;;;1.30;99.90;;;;;;5055836;28;20428;-76
2022/12/14 11:55:21;;;;;;;6.77;4.60;;;1.20;99.90;;;;;;5061734;28;20437;-78
2022/12/14 11:57:59;;;;;;;7.27;4.80;;;1.40;99.90;;;;;;5069875;28;20422;-78
2022/12/14 12:00:42;;;;;;;8.47;4.37;;;1.50;99.90;;;;;;5069217;28;20420;-78
2022/12/14 12:03:17;;;;;;;11.00;5.83;;;1.60;99.90;;;;;;5070773;28;20529;-77
2022/12/14 12:05:43;;;;;;;9.07;6.23;;;1.60;99.90;;;;;;5073133;28;20786;-78
2022/12/14 12:08:23;;;;;;;6.97;4.80;;;1.70;99.90;;;;;;5073534;28;20409;-78
2022/12/14 12:10:50;;;;;;;12.13;5.30;;;1.70;99.90;;;;;;5073469;28;20447;-78
2022/12/14 12:13:27;;;;;;;14.40;5.50;;;1.80;99.90;;;;;;5073618;28;20453;-78
2022/12/14 12:15:55;;;;;;;10.93;5.27;;;2.00;99.90;;;;;;5073149;28;20778;-79
2022/12/14 12:18:34;;;;;;;5.73;4.20;;;2.00;99.90;;;;;;5072991;28;20417;-79
2022/12/14 12:21:05;;;;;;;8.13;5.33;;;2.30;99.90;;;;;;5073390;28;20470;-78
2022/12/14 12:23:48;;;;;;;15.90;7.37;;;2.50;99.90;;;;;;5073308;28;20452;-78
2022/12/14 12:26:40;;;;;;;11.67;5.67;;;2.50;99.90;;;;;;5073284;28;20435;-78
2022/12/14 12:29:10;;;;;;;10.23;5.93;;;2.50;99.90;;;;;;5072528;28;20421;-79
2022/12/14 12:32:23;;;;;;;15.57;6.23;;;2.50;99.90;;;;;;5073079;28;20432;-79
2022/12/14 12:35:20;;;;;;;10.17;5.43;;;2.60;99.90;;;;;;5068915;28;20436;-78
2022/12/14 12:37:54;;;;;;;9.57;5.40;;;2.50;99.90;;;;;;5073827;28;20413;-77
2022/12/14 12:40:29;;;;;;;8.30;5.37;;;2.50;99.90;;;;;;5073856;28;20511;-79
2022/12/14 12:43:28;;;;;;;15.17;6.10;;;2.70;99.90;;;;;;5074436;28;20447;-79
2022/12/14 12:45:58;;;;;;;10.60;5.87;;;2.80;99.90;;;;;;5072419;28;20406;-78
2022/12/14 12:48:33;;;;;;;16.53;5.87;;;3.10;99.90;;;;;;5073344;28;20468;-78
2022/12/14 12:51:03;;;;;;;8.17;5.07;;;3.40;99.90;;;;;;5073144;28;20439;-79
2022/12/14 12:53:32;;;;;;;8.00;5.70;;;4.00;99.90;;;;;;5072096;28;20437;-78
2022/12/14 12:56:09;;;;;;;11.33;6.50;;;4.80;99.90;;;;;;5072285;28;20409;-79
2022/12/14 12:58:37;;;;;;;7.80;6.90;;;5.40;99.90;;;;;;5071230;28;20424;-80
2022/12/14 13:01:25;;;;;;;10.60;6.00;;;6.10;99.90;;;;;;5073686;28;20413;-79
2022/12/14 13:03:57;;;;;;;9.03;6.00;;;6.60;99.90;;;;;;5072268;28;20475;-78
2022/12/14 13:06:28;;;;;;;10.13;5.97;;;6.80;99.90;;;;;;5073530;28;20436;-78
2022/12/14 13:09:04;;;;;;;16.40;6.40;;;6.80;99.90;;;;;;5074136;28;20425;-78
2022/12/14 13:11:35;;;;;;;9.30;6.80;;;6.80;99.90;;;;;;5073954;28;20417;-78
2022/12/14 13:14:11;;;;;;;17.03;7.23;;;6.90;99.90;;;;;;5073066;28;20501;-80
2022/12/14 13:16:38;;;;;;;8.60;6.03;;;7.10;99.90;;;;;;5073797;28;20437;-79
2022/12/14 13:19:23;;;;;;;8.63;5.73;;;7.30;99.90;;;;;;5073297;28;20520;-78
2022/12/14 13:21:50;;;;;;;14.63;7.40;;;7.50;99.90;;;;;;5073365;28;20405;-78
2022/12/14 13:24:19;;;;;;;10.70;6.70;;;7.60;99.90;;;;;;5072317;28;20433;-78